Arthur Brusco — WDC3449 — position and weather

sailwx.info

Track history (hours):
 
Tides and Currents Weather Stations Pressure Air Temp Water Temp Dewpoint Dewpoint Depression Visibility Wind Speed Wind Dir Waves Ship Positions

Arthur Brusco

Owner: Brusco Tug & Barge, Inc, Longview, WA. More information available from US FCC via Universal Licensing System and Coast Guard Vessel Documentation Center.

Last reported at 2015-May-29 07:34 UTC. Time now 2015-May-29 08:15 UTC.
Position N 38°03' W 121°41'.

Length 35 m; draft 3.2 m.

Type: Other ship. MMSI: 271040404.

Date/timePositionNaut miles runAvg speedWind from/ knotsBaromVisibWave heightAir tempDewpointWater temp
2015-May-29 07:34N 38°03' W 121°41'0 0.1
2015-May-29 06:34N 38°04' W 121°41'3 2.3
2015-May-29 05:20N 38°02' W 121°44'7 5.9
2015-May-29 04:05N 38°03' W 121°53'12 6.9
2015-May-29 02:19N 38°02' W 122°08'5 6.3
2015-May-29 01:34N 38°04' W 122°14'6 6.2
2015-May-29 00:34N 38°02' W 122°22'5 4.5
2015-May-28 23:29N 37°59' W 122°27'0 0.1
2015-May-28 22:17N 37°59' W 122°27'0 0.2
2015-May-28 19:25N 37°59' W 122°27'3 1.2
2015-May-28 17:21N 37°56' W 122°27'912.0
2015-May-28 16:34N 37°47' W 122°23'2 2.3
2015-May-28 15:34N 37°45' W 122°23'2 2.4
2015-May-28 14:33N 37°47' W 122°23'1211.2
2015-May-28 13:28N 37°59' W 122°27'0 0.2
2015-May-28 12:33N 37°59' W 122°26'1 1.0
2015-May-28 11:31N 37°60' W 122°25'9 9.4
2015-May-28 10:33N 38°04' W 122°15'17 8.5
2015-May-28 08:33N 38°03' W 121°53'8 6.0
2015-May-28 07:15N 38°02' W 121°43'2 2.9
2015-May-28 06:28N 38°03' W 121°41'6 4.5
2015-May-28 05:10N 38°01' W 121°48'20 6.7
2015-May-28 02:15N 38°04' W 122°13'5 7.2
2015-May-28 01:30N 38°03' W 122°20'6 6.7
2015-May-28 00:33N 37°59' W 122°26'0 0.1
2015-May-27 23:33N 37°59' W 122°26'0 0.4
2015-May-27 22:33N 37°59' W 122°27'0 0.0
2015-May-27 21:32N 37°59' W 122°27'0 0.1
2015-May-27 20:31N 37°59' W 122°27'0 0.0
2015-May-27 19:29N 37°59' W 122°27'0 0.0
2015-May-27 18:28N 37°59' W 122°27'0 0.1
2015-May-27 17:33N 37°59' W 122°27'0 0.1
2015-May-27 16:30N 37°59' W 122°27'0 0.0
2015-May-27 15:17N 37°59' W 122°27'0 0.0
2015-May-27 14:32N 37°59' W 122°27'0 0.0
2015-May-27 13:30N 37°59' W 122°27'5 5.1
2015-May-27 12:33N 38°02' W 122°22'10 8.9
2015-May-27 11:25N 38°02' W 122°09'12 9.8
2015-May-27 10:13N 38°03' W 121°54'6 7.3
2015-May-27 09:25N 38°02' W 121°47'5 4.4
2015-May-27 08:20N 38°03' W 121°41'25 6.0
2015-May-27 04:09N 38°04' W 122°13'5 7.9
2015-May-27 03:32N 38°03' W 122°19'7 6.8
2015-May-27 02:33N 37°59' W 122°26'0 0.0
2015-May-27 01:32N 37°59' W 122°26'0 0.0
2015-May-27 00:33N 37°59' W 122°26'0 0.0
2015-May-26 23:33N 37°59' W 122°26'0 0.1
2015-May-26 22:32N 37°59' W 122°27'0 0.1
2015-May-26 21:33N 37°59' W 122°27'0 0.3
2015-May-26 20:25N 37°59' W 122°27'0 0.0
2015-May-26 19:25N 37°59' W 122°27'0 0.0
2015-May-26 18:33N 37°59' W 122°27'0 0.0
2015-May-26 17:33N 37°59' W 122°27'0 0.0
2015-May-26 16:33N 37°59' W 122°27'7 6.2
2015-May-26 15:27N 38°03' W 122°19'4 1.3
2015-May-26 12:17N 38°05' W 122°15'6 7.6
2015-May-26 11:28N 38°02' W 122°22'5 4.4
2015-May-26 10:26N 37°59' W 122°26'7 8.4
2015-May-26 09:33N 38°03' W 122°18'20 8.9
2015-May-26 07:20N 38°03' W 121°53'9 4.8
2015-May-26 05:22N 38°03' W 121°41'26 6.8
2015-May-26 01:30N 38°04' W 122°15'7 7.7
2015-May-26 00:32N 38°01' W 122°24'1 1.3
2015-May-25 23:31N 37°60' W 122°25'9 4.0
2015-May-25 21:12N 38°05' W 122°15'4 6.3
2015-May-25 20:30N 38°03' W 122°20'8 7.4
2015-May-25 19:26N 37°56' W 122°26'8 8.8
2015-May-25 18:33N 37°49' W 122°21'6 6.1
2015-May-25 17:33N 37°47' W 122°15'0 0.4
2015-May-25 16:33N 37°47' W 122°15'7 7.3
2015-May-25 15:33N 37°51' W 122°23'9 7.8
2015-May-25 14:25N 37°59' W 122°26'0 0.0
2015-May-25 13:32N 37°59' W 122°26'0 0.0
2015-May-25 12:33N 37°59' W 122°26'0 0.0
2015-May-25 11:33N 37°59' W 122°26'0 0.1
2015-May-25 10:33N 37°59' W 122°26'0 0.1
2015-May-25 09:23N 37°59' W 122°26'2 2.0
2015-May-25 08:32N 38°00' W 122°25'9 9.3
2015-May-25 07:32N 38°04' W 122°14'24 7.3
2015-May-25 04:17N 38°02' W 121°44'25 4.3
2015-May-24 22:31N 38°04' W 122°15'7 7.1
2015-May-24 21:32N 38°01' W 122°23'3 3.0
2015-May-24 20:29N 37°59' W 122°26'0 0.1
2015-May-24 19:30N 37°59' W 122°26'0 0.0
2015-May-24 18:18N 37°59' W 122°26'4 2.2
2015-May-24 16:28N 37°55' W 122°25'2 2.7
2015-May-24 15:33N 37°54' W 122°22'0 0.0
2015-May-24 14:33N 37°54' W 122°22'1 0.7
2015-May-24 13:33N 37°54' W 122°23'6 2.7
2015-May-24 11:24N 37°59' W 122°27'4 4.3
2015-May-24 10:33N 38°01' W 122°23'9 8.9
2015-May-24 09:30N 38°03' W 122°11'24 7.4
2015-May-24 06:20N 38°03' W 121°41'21 5.2
2015-May-24 02:13N 38°02' W 122°09'5 7.7
2015-May-24 01:31N 38°04' W 122°15'7 7.5
2015-May-24 00:33N 38°01' W 122°23'3 2.8
2015-May-23 23:33N 37°59' W 122°26'0 0.0
2015-May-23 22:33N 37°59' W 122°26'0 0.0
2015-May-23 21:32N 37°59' W 122°26'0 0.0
2015-May-23 20:33N 37°59' W 122°26'0 0.1
2015-May-23 19:25N 37°59' W 122°26'0 0.0
2015-May-23 18:22N 37°59' W 122°26'0 0.0
2015-May-23 17:31N 37°59' W 122°26'3 0.9
2015-May-23 13:33N 38°01' W 122°23'9 8.3
2015-May-23 12:29N 38°03' W 122°12'23 7.8
2015-May-23 09:33N 38°02' W 121°43'2 1.4
2015-May-23 08:11N 38°02' W 121°45'22 4.8
2015-May-23 03:33N 38°04' W 122°14'6 6.2
2015-May-23 02:32N 38°02' W 122°21'5 4.7
2015-May-23 01:33N 37°59' W 122°26'0 0.0
2015-May-23 00:33N 37°59' W 122°26'0 0.2
2015-May-22 23:33N 37°59' W 122°27'0 0.0
2015-May-22 22:33N 37°59' W 122°27'0 0.0
2015-May-22 21:32N 37°59' W 122°27'0 0.0
2015-May-22 20:33N 37°59' W 122°27'0 0.0
2015-May-22 19:33N 37°59' W 122°27'0 0.0
2015-May-22 18:33N 37°59' W 122°27'9 9.2
2015-May-22 17:33N 37°50' W 122°24'5 5.3
2015-May-22 16:33N 37°45' W 122°23'7 6.5
2015-May-22 15:32N 37°51' W 122°25'7 5.2
2015-May-22 14:07N 37°59' W 122°27'0 0.3
2015-May-22 12:32N 37°59' W 122°26'9 9.1
2015-May-22 11:33N 38°03' W 122°16'18 8.6
2015-May-22 09:26N 38°03' W 121°53'8 8.6
2015-May-22 08:32N 38°02' W 121°44'2 2.2
2015-May-22 07:28N 38°03' W 121°41'25 6.0
2015-May-22 03:17N 38°04' W 122°13'7 7.6
2015-May-22 02:19N 38°02' W 122°22'4 5.4
2015-May-22 01:32N 37°59' W 122°26'0 0.1
2015-May-21 22:21N 37°59' W 122°27'0 0.0
2015-May-21 21:29N 37°59' W 122°27'8 8.3
2015-May-21 20:33N 37°52' W 122°24'7 7.1
2015-May-21 19:34N 37°48' W 122°17'0 0.3
2015-May-21 18:33N 37°48' W 122°17'9 8.8
2015-May-21 17:31N 37°54' W 122°26'6 2.1
2015-May-21 14:31N 38°00' W 122°25'1111.0
2015-May-21 13:30N 38°03' W 122°11'23 7.6
2015-May-21 10:25N 38°03' W 121°42'0 0.0
2015-May-21 03:29N 38°03' W 121°41'27 9.3
2015-May-21 00:33N 38°04' W 122°16'9 9.0
2015-May-20 23:30N 37°59' W 122°26'0 0.2
2015-May-20 22:33N 37°59' W 122°26'0 0.0
2015-May-20 21:31N 37°59' W 122°26'0 0.0
2015-May-20 20:32N 37°59' W 122°26'0 0.0
2015-May-20 19:32N 37°59' W 122°26'0 0.0
2015-May-20 18:26N 37°59' W 122°26'0 0.0
2015-May-20 17:23N 37°59' W 122°26'0 0.1
2015-May-20 15:33N 37°59' W 122°26'0 0.0
2015-May-20 10:13N 37°59' W 122°26'0 0.0
2015-May-20 09:27N 37°59' W 122°26'0 0.1
2015-May-20 08:29N 37°59' W 122°26'0 0.0
2015-May-20 07:33N 37°59' W 122°26'1111.0
2015-May-20 06:33N 37°48' W 122°23'3 3.5
2015-May-20 05:33N 37°45' W 122°23'8 7.5
2015-May-20 04:33N 37°52' W 122°25'7 5.9
2015-May-20 03:22N 37°59' W 122°26'1 1.5
2015-May-20 02:30N 37°60' W 122°25'1010.2
2015-May-20 01:31N 38°04' W 122°13'25 4.7
2015-May-19 20:11N 38°03' W 121°41'0 0.2
2015-May-19 19:31N 38°03' W 121°41'0 0.0
2015-May-19 17:06N 38°03' W 121°41'0 0.0
2015-May-19 12:14N 38°03' W 121°41'2 2.8
2015-May-19 11:28N 38°02' W 121°44'  
Track history (hours):
 
Tides and Currents Weather Stations Pressure Air Temp Water Temp Dewpoint Dewpoint Depression Visibility Wind Speed Wind Dir Waves Ship Positions

Arthur Brusco

Owner: Brusco Tug & Barge, Inc, Longview, WA. More information available from US FCC via Universal Licensing System and Coast Guard Vessel Documentation Center.

Last reported at 2015-May-29 07:34 UTC. Time now 2015-May-29 08:15 UTC.
Position N 38°03' W 121°41'.

Length 35 m; draft 3.2 m.

Type: Other ship. MMSI: 271040404.

Date/timePositionNaut miles runAvg speedWind from/ knotsBaromVisibWave heightAir tempDewpointWater temp
2015-May-29 07:34N 38°03' W 121°41'0 0.1
2015-May-29 06:34N 38°04' W 121°41'3 2.3
2015-May-29 05:20N 38°02' W 121°44'7 5.9
2015-May-29 04:05N 38°03' W 121°53'12 6.9
2015-May-29 02:19N 38°02' W 122°08'5 6.3
2015-May-29 01:34N 38°04' W 122°14'6 6.2
2015-May-29 00:34N 38°02' W 122°22'5 4.5
2015-May-28 23:29N 37°59' W 122°27'0 0.1
2015-May-28 22:17N 37°59' W 122°27'0 0.2
2015-May-28 19:25N 37°59' W 122°27'3 1.2
2015-May-28 17:21N 37°56' W 122°27'912.0
2015-May-28 16:34N 37°47' W 122°23'2 2.3
2015-May-28 15:34N 37°45' W 122°23'2 2.4
2015-May-28 14:33N 37°47' W 122°23'1211.2
2015-May-28 13:28N 37°59' W 122°27'0 0.2
2015-May-28 12:33N 37°59' W 122°26'1 1.0
2015-May-28 11:31N 37°60' W 122°25'9 9.4
2015-May-28 10:33N 38°04' W 122°15'17 8.5
2015-May-28 08:33N 38°03' W 121°53'8 6.0
2015-May-28 07:15N 38°02' W 121°43'2 2.9
2015-May-28 06:28N 38°03' W 121°41'6 4.5
2015-May-28 05:10N 38°01' W 121°48'20 6.7
2015-May-28 02:15N 38°04' W 122°13'5 7.2
2015-May-28 01:30N 38°03' W 122°20'6 6.7
2015-May-28 00:33N 37°59' W 122°26'0 0.1
2015-May-27 23:33N 37°59' W 122°26'0 0.4
2015-May-27 22:33N 37°59' W 122°27'0 0.0
2015-May-27 21:32N 37°59' W 122°27'0 0.1
2015-May-27 20:31N 37°59' W 122°27'0 0.0
2015-May-27 19:29N 37°59' W 122°27'0 0.0
2015-May-27 18:28N 37°59' W 122°27'0 0.1
2015-May-27 17:33N 37°59' W 122°27'0 0.1
2015-May-27 16:30N 37°59' W 122°27'0 0.0
2015-May-27 15:17N 37°59' W 122°27'0 0.0
2015-May-27 14:32N 37°59' W 122°27'0 0.0
2015-May-27 13:30N 37°59' W 122°27'5 5.1
2015-May-27 12:33N 38°02' W 122°22'10 8.9
2015-May-27 11:25N 38°02' W 122°09'12 9.8
2015-May-27 10:13N 38°03' W 121°54'6 7.3
2015-May-27 09:25N 38°02' W 121°47'5 4.4
2015-May-27 08:20N 38°03' W 121°41'25 6.0
2015-May-27 04:09N 38°04' W 122°13'5 7.9
2015-May-27 03:32N 38°03' W 122°19'7 6.8
2015-May-27 02:33N 37°59' W 122°26'0 0.0
2015-May-27 01:32N 37°59' W 122°26'0 0.0
2015-May-27 00:33N 37°59' W 122°26'0 0.0
2015-May-26 23:33N 37°59' W 122°26'0 0.1
2015-May-26 22:32N 37°59' W 122°27'0 0.1
2015-May-26 21:33N 37°59' W 122°27'0 0.3
2015-May-26 20:25N 37°59' W 122°27'0 0.0
2015-May-26 19:25N 37°59' W 122°27'0 0.0
2015-May-26 18:33N 37°59' W 122°27'0 0.0
2015-May-26 17:33N 37°59' W 122°27'0 0.0
2015-May-26 16:33N 37°59' W 122°27'7 6.2
2015-May-26 15:27N 38°03' W 122°19'4 1.3
2015-May-26 12:17N 38°05' W 122°15'6 7.6
2015-May-26 11:28N 38°02' W 122°22'5 4.4
2015-May-26 10:26N 37°59' W 122°26'7 8.4
2015-May-26 09:33N 38°03' W 122°18'20 8.9
2015-May-26 07:20N 38°03' W 121°53'9 4.8
2015-May-26 05:22N 38°03' W 121°41'26 6.8
2015-May-26 01:30N 38°04' W 122°15'7 7.7
2015-May-26 00:32N 38°01' W 122°24'1 1.3
2015-May-25 23:31N 37°60' W 122°25'9 4.0
2015-May-25 21:12N 38°05' W 122°15'4 6.3
2015-May-25 20:30N 38°03' W 122°20'8 7.4
2015-May-25 19:26N 37°56' W 122°26'8 8.8
2015-May-25 18:33N 37°49' W 122°21'6 6.1
2015-May-25 17:33N 37°47' W 122°15'0 0.4
2015-May-25 16:33N 37°47' W 122°15'7 7.3
2015-May-25 15:33N 37°51' W 122°23'9 7.8
2015-May-25 14:25N 37°59' W 122°26'0 0.0
2015-May-25 13:32N 37°59' W 122°26'0 0.0
2015-May-25 12:33N 37°59' W 122°26'0 0.0
2015-May-25 11:33N 37°59' W 122°26'0 0.1
2015-May-25 10:33N 37°59' W 122°26'0 0.1
2015-May-25 09:23N 37°59' W 122°26'2 2.0
2015-May-25 08:32N 38°00' W 122°25'9 9.3
2015-May-25 07:32N 38°04' W 122°14'24 7.3
2015-May-25 04:17N 38°02' W 121°44'25 4.3
2015-May-24 22:31N 38°04' W 122°15'7 7.1
2015-May-24 21:32N 38°01' W 122°23'3 3.0
2015-May-24 20:29N 37°59' W 122°26'0 0.1
2015-May-24 19:30N 37°59' W 122°26'0 0.0
2015-May-24 18:18N 37°59' W 122°26'4 2.2
2015-May-24 16:28N 37°55' W 122°25'2 2.7
2015-May-24 15:33N 37°54' W 122°22'0 0.0
2015-May-24 14:33N 37°54' W 122°22'1 0.7
2015-May-24 13:33N 37°54' W 122°23'6 2.7
2015-May-24 11:24N 37°59' W 122°27'4 4.3
2015-May-24 10:33N 38°01' W 122°23'9 8.9
2015-May-24 09:30N 38°03' W 122°11'24 7.4
2015-May-24 06:20N 38°03' W 121°41'21 5.2
2015-May-24 02:13N 38°02' W 122°09'5 7.7
2015-May-24 01:31N 38°04' W 122°15'7 7.5
2015-May-24 00:33N 38°01' W 122°23'3 2.8
2015-May-23 23:33N 37°59' W 122°26'0 0.0
2015-May-23 22:33N 37°59' W 122°26'0 0.0
2015-May-23 21:32N 37°59' W 122°26'0 0.0
2015-May-23 20:33N 37°59' W 122°26'0 0.1
2015-May-23 19:25N 37°59' W 122°26'0 0.0
2015-May-23 18:22N 37°59' W 122°26'0 0.0
2015-May-23 17:31N 37°59' W 122°26'3 0.9
2015-May-23 13:33N 38°01' W 122°23'9 8.3
2015-May-23 12:29N 38°03' W 122°12'23 7.8
2015-May-23 09:33N 38°02' W 121°43'2 1.4
2015-May-23 08:11N 38°02' W 121°45'22 4.8
2015-May-23 03:33N 38°04' W 122°14'6 6.2
2015-May-23 02:32N 38°02' W 122°21'5 4.7
2015-May-23 01:33N 37°59' W 122°26'0 0.0
2015-May-23 00:33N 37°59' W 122°26'0 0.2
2015-May-22 23:33N 37°59' W 122°27'0 0.0
2015-May-22 22:33N 37°59' W 122°27'0 0.0
2015-May-22 21:32N 37°59' W 122°27'0 0.0
2015-May-22 20:33N 37°59' W 122°27'0 0.0
2015-May-22 19:33N 37°59' W 122°27'0 0.0
2015-May-22 18:33N 37°59' W 122°27'9 9.2
2015-May-22 17:33N 37°50' W 122°24'5 5.3
2015-May-22 16:33N 37°45' W 122°23'7 6.5
2015-May-22 15:32N 37°51' W 122°25'7 5.2
2015-May-22 14:07N 37°59' W 122°27'0 0.3
2015-May-22 12:32N 37°59' W 122°26'9 9.1
2015-May-22 11:33N 38°03' W 122°16'18 8.6
2015-May-22 09:26N 38°03' W 121°53'8 8.6
2015-May-22 08:32N 38°02' W 121°44'2 2.2
2015-May-22 07:28N 38°03' W 121°41'25 6.0
2015-May-22 03:17N 38°04' W 122°13'7 7.6
2015-May-22 02:19N 38°02' W 122°22'4 5.4
2015-May-22 01:32N 37°59' W 122°26'0 0.1
2015-May-21 22:21N 37°59' W 122°27'0 0.0
2015-May-21 21:29N 37°59' W 122°27'8 8.3
2015-May-21 20:33N 37°52' W 122°24'7 7.1
2015-May-21 19:34N 37°48' W 122°17'0 0.3
2015-May-21 18:33N 37°48' W 122°17'9 8.8
2015-May-21 17:31N 37°54' W 122°26'6 2.1
2015-May-21 14:31N 38°00' W 122°25'1111.0
2015-May-21 13:30N 38°03' W 122°11'23 7.6
2015-May-21 10:25N 38°03' W 121°42'0 0.0
2015-May-21 03:29N 38°03' W 121°41'27 9.3
2015-May-21 00:33N 38°04' W 122°16'9 9.0
2015-May-20 23:30N 37°59' W 122°26'0 0.2
2015-May-20 22:33N 37°59' W 122°26'0 0.0
2015-May-20 21:31N 37°59' W 122°26'0 0.0
2015-May-20 20:32N 37°59' W 122°26'0 0.0
2015-May-20 19:32N 37°59' W 122°26'0 0.0
2015-May-20 18:26N 37°59' W 122°26'0 0.0
2015-May-20 17:23N 37°59' W 122°26'0 0.1
2015-May-20 15:33N 37°59' W 122°26'0 0.0
2015-May-20 10:13N 37°59' W 122°26'0 0.0
2015-May-20 09:27N 37°59' W 122°26'0 0.1
2015-May-20 08:29N 37°59' W 122°26'0 0.0
2015-May-20 07:33N 37°59' W 122°26'1111.0
2015-May-20 06:33N 37°48' W 122°23'3 3.5
2015-May-20 05:33N 37°45' W 122°23'8 7.5
2015-May-20 04:33N 37°52' W 122°25'7 5.9
2015-May-20 03:22N 37°59' W 122°26'1 1.5
2015-May-20 02:30N 37°60' W 122°25'1010.2
2015-May-20 01:31N 38°04' W 122°13'25 4.7
2015-May-19 20:11N 38°03' W 121°41'0 0.2
2015-May-19 19:31N 38°03' W 121°41'0 0.0
2015-May-19 17:06N 38°03' W 121°41'0 0.0
2015-May-19 12:14N 38°03' W 121°41'2 2.8
2015-May-19 11:28N 38°02' W 121°44'  

Dump ship's entire track history